Orbital elements of COSMOS 1275 DEB
| Launched | 3 June 1981 |
| Flight ended | – |
| Launch site | Plesetsk Missile and Space Complex, Russia |
| Owner | Commonwealth of Independent States (former USSR) |
| NORAD ID | 13804 |
| Date fetched |
Epoch osculation |
Inc. [°] |
Ecc. | RA asc node [hr] |
Arg Peri. [°] |
Mean anom [°] |
Mean motion [rev/day] |
Abs. mag |
| Date fetched |
Epoch osculation |
Inc. [°] |
Ecc. | RA asc node [hr] |
Arg Peri. [°] |
Mean anom [°] |
Mean motion [rev/day] |
Abs. mag |
| 2026 May 08 17:57 | 2026 May 05 09:21:43 | 82.9411 | 0.00391 | 17.8574 | 159.5882 | 259.5838 | 14.36132 | – |
| 2026 May 07 17:58 | 2026 May 05 09:21:43 | 82.9411 | 0.00391 | 17.8574 | 159.5882 | 259.5838 | 14.36132 | – |
| 2026 May 06 17:57 | 2026 May 05 09:21:43 | 82.9411 | 0.00391 | 17.8574 | 159.5882 | 259.5838 | 14.36132 | – |
| 2026 May 05 17:57 | 2026 May 05 09:21:43 | 82.9411 | 0.00391 | 17.8574 | 159.5882 | 259.5838 | 14.36132 | – |
| 2026 May 04 17:57 | 2026 Apr 30 10:37:01 | 82.9406 | 0.00387 | 18.1279 | 174.2750 | 259.5838 | 14.36132 | – |
| 2026 May 03 17:57 | 2026 Apr 30 10:37:01 | 82.9406 | 0.00387 | 18.1279 | 174.2750 | 259.5838 | 14.36132 | – |
| 2026 May 02 17:57 | 2026 Apr 30 10:37:01 | 82.9406 | 0.00387 | 18.1279 | 174.2750 | 259.5838 | 14.36132 | – |
| 2026 May 01 17:56 | 2026 Apr 30 10:37:01 | 82.9406 | 0.00387 | 18.1279 | 174.2750 | 259.5838 | 14.36132 | – |
| 2026 Apr 30 17:56 | 2026 Apr 30 10:37:01 | 82.9406 | 0.00387 | 18.1279 | 174.2750 | 259.5838 | 14.36132 | – |
| 2026 Apr 29 17:57 | 2026 Apr 24 04:26:20 | 82.9402 | 0.00381 | 18.4699 | 193.1514 | 259.5838 | 14.36132 | – |
| 2026 Apr 28 17:56 | 2026 Apr 24 04:26:20 | 82.9402 | 0.00381 | 18.4699 | 193.1514 | 259.5838 | 14.36132 | – |
| 2026 Apr 27 17:58 | 2026 Apr 24 04:26:20 | 82.9402 | 0.00381 | 18.4699 | 193.1514 | 259.5838 | 14.36132 | – |
| 2026 Apr 26 17:58 | 2026 Apr 24 04:26:20 | 82.9402 | 0.00381 | 18.4699 | 193.1514 | 259.5838 | 14.36132 | – |
| 2026 Apr 25 17:58 | 2026 Apr 24 04:26:20 | 82.9402 | 0.00381 | 18.4699 | 193.1514 | 259.5838 | 14.36132 | – |
| 2026 Apr 24 17:59 | 2026 Apr 24 04:26:20 | 82.9402 | 0.00381 | 18.4699 | 193.1514 | 259.5838 | 14.36132 | – |
| 2026 Apr 23 17:57 | 2026 Apr 19 12:03:41 | 82.9397 | 0.00374 | 18.7259 | 207.6318 | 259.5838 | 14.36132 | – |
| 2026 Apr 22 17:57 | 2026 Apr 19 12:03:41 | 82.9397 | 0.00374 | 18.7259 | 207.6318 | 259.5838 | 14.36132 | – |
| 2026 Apr 21 17:57 | 2026 Apr 19 12:03:41 | 82.9397 | 0.00374 | 18.7259 | 207.6318 | 259.5838 | 14.36132 | – |
| 2026 Apr 20 17:57 | 2026 Apr 19 12:03:41 | 82.9397 | 0.00374 | 18.7259 | 207.6318 | 259.5838 | 14.36132 | – |
| 2026 Apr 19 17:58 | 2026 Apr 19 12:03:41 | 82.9397 | 0.00374 | 18.7259 | 207.6318 | 259.5838 | 14.36132 | – |
| 2026 Apr 18 17:56 | 2026 Apr 12 23:18:49 | 82.9400 | 0.00368 | 19.0829 | 228.3433 | 259.5838 | 14.36132 | – |
| 2026 Apr 16 17:57 | 2026 Apr 12 23:18:49 | 82.9400 | 0.00368 | 19.0829 | 228.3433 | 259.5838 | 14.36132 | – |
| 2026 Apr 14 17:57 | 2026 Apr 12 23:18:49 | 82.9400 | 0.00368 | 19.0829 | 228.3433 | 259.5838 | 14.36132 | – |
| 2026 Apr 13 17:57 | 2026 Apr 12 23:18:49 | 82.9400 | 0.00368 | 19.0829 | 228.3433 | 259.5838 | 14.36132 | – |
| 2026 Apr 12 17:57 | 2026 Apr 08 11:41:29 | 82.9406 | 0.00365 | 19.3280 | 242.8712 | 259.5838 | 14.36132 | – |
| 2026 Apr 11 17:57 | 2026 Apr 08 11:41:29 | 82.9406 | 0.00365 | 19.3280 | 242.8712 | 259.5838 | 14.36132 | – |